Time;durP1;ratioP1;P1;durP2;ratioP2;P2;SDS_P1;SDS_P2;PMS_P1;PMS_P2;Temp;Humidity;BMP_temperature;BMP_pressure;BME280_temperature;BME280_humidity;BME280_pressure;Samples;Min_cycle;Max_cycle;Signal;HPM_P1;HPM_P2
2021/07/20 00:00:45;;;;;;;24.38;15.77;;;;;;;-145.83;100.00;58908.13;3481462;28;20134;-44
2021/07/20 00:02:30;;;;;;;22.63;15.18;;;;;;;-145.83;100.00;58908.13;3478830;28;20560;-44
2021/07/20 00:04:13;;;;;;;26.42;16.58;;;;;;;-145.83;100.00;58908.13;3483354;28;20148;-44
2021/07/20 00:06:03;;;;;;;28.13;16.10;;;;;;;-145.83;100.00;58908.13;3471939;28;20079;-43
2021/07/20 00:07:44;;;;;;;25.17;16.85;;;;;;;-145.83;100.00;58908.13;3478396;28;20041;-44
2021/07/20 00:09:26;;;;;;;25.98;16.55;;;;;;;-145.83;100.00;58908.13;3480109;28;20118;-44
2021/07/20 00:11:07;;;;;;;26.83;16.52;;;;;;;-145.83;100.00;58908.13;3479540;28;20072;-44
2021/07/20 00:12:50;;;;;;;22.27;16.20;;;;;;;-145.83;100.00;58908.13;3482702;28;20049;-45
2021/07/20 00:14:31;;;;;;;23.00;16.50;;;;;;;-145.83;100.00;58908.13;3479118;28;20076;-44
2021/07/20 00:16:13;;;;;;;26.23;16.85;;;;;;;-145.83;100.00;58908.13;3483335;28;20290;-45
2021/07/20 00:17:58;;;;;;;22.95;15.73;;;;;;;-145.83;100.00;58908.13;3480832;28;20140;-44
2021/07/20 00:19:40;;;;;;;24.05;15.90;;;;;;;-145.83;100.00;58908.13;3481649;28;20505;-44
2021/07/20 00:21:21;;;;;;;25.85;15.57;;;;;;;-145.83;100.00;58908.13;3471439;28;20137;-44
2021/07/20 00:23:03;;;;;;;23.30;15.32;;;;;;;-145.83;100.00;58908.13;3473058;28;20083;-45
2021/07/20 00:24:45;;;;;;;20.13;14.88;;;;;;;-145.83;100.00;58908.13;3483129;28;20493;-44
2021/07/20 00:26:26;;;;;;;26.02;15.65;;;;;;;-145.83;100.00;58908.13;3476091;28;20072;-45
2021/07/20 00:28:07;;;;;;;25.92;15.60;;;;;;;-145.83;100.00;58908.13;3469302;28;20096;-44
2021/07/20 00:29:49;;;;;;;27.17;15.10;;;;;;;-145.83;100.00;58908.13;3477919;28;20102;-44
2021/07/20 00:31:30;;;;;;;25.70;16.50;;;;;;;-145.83;100.00;58908.13;3481619;28;20056;-45
2021/07/20 00:33:12;;;;;;;25.95;16.33;;;;;;;-145.83;100.00;58908.13;3470946;28;20319;-46
2021/07/20 00:34:53;;;;;;;23.88;15.48;;;;;;;-145.83;100.00;58908.13;3471563;28;20482;-44
2021/07/20 00:36:35;;;;;;;27.05;16.00;;;;;;;-145.83;100.00;58908.13;3469559;28;20061;-44
2021/07/20 00:38:17;;;;;;;26.48;15.75;;;;;;;-145.83;100.00;58908.13;3476011;28;20052;-44
2021/07/20 00:39:58;;;;;;;28.88;17.10;;;;;;;-145.83;100.00;58908.13;3483048;28;20187;-44
2021/07/20 00:41:39;;;;;;;25.25;17.60;;;;;;;-145.83;100.00;58908.13;3474364;28;20073;-44
2021/07/20 00:43:21;;;;;;;31.63;18.15;;;;;;;-145.83;100.00;58908.13;3470041;28;20089;-44
2021/07/20 00:45:06;;;;;;;25.23;17.10;;;;;;;-145.83;100.00;58908.13;3479778;28;20053;-45
2021/07/20 00:46:47;;;;;;;25.48;16.67;;;;;;;-145.83;100.00;58908.13;3478857;28;20080;-44
2021/07/20 00:48:29;;;;;;;26.38;16.88;;;;;;;-145.83;100.00;58908.13;3482663;28;20399;-44
2021/07/20 00:50:13;;;;;;;23.67;16.40;;;;;;;-145.83;100.00;58908.13;3475944;28;20085;-44
2021/07/20 00:51:54;;;;;;;28.00;15.35;;;;;;;-145.83;100.00;58908.13;3469078;28;20053;-43
2021/07/20 00:53:36;;;;;;;23.60;15.63;;;;;;;-145.83;100.00;58908.13;3476190;28;20521;-44
2021/07/20 00:55:18;;;;;;;20.40;14.13;;;;;;;-145.83;100.00;58908.13;3479829;28;23860;-44
2021/07/20 00:57:01;;;;;;;22.65;15.73;;;;;;;-145.83;100.00;58908.13;3471368;28;20490;-44
2021/07/20 00:58:42;;;;;;;25.08;15.32;;;;;;;-145.83;100.00;58908.13;3470951;28;20065;-44
2021/07/20 01:00:24;;;;;;;26.90;14.95;;;;;;;-145.83;100.00;58908.13;3482590;28;20614;-45
2021/07/20 01:02:06;;;;;;;24.38;15.30;;;;;;;-145.83;100.00;58908.13;3475282;28;20392;-44
2021/07/20 01:03:47;;;;;;;28.38;17.25;;;;;;;-145.83;100.00;58908.13;3477508;28;20053;-44
2021/07/20 01:05:31;;;;;;;25.67;18.05;;;;;;;-145.83;100.00;58908.13;3476882;28;20079;-44
2021/07/20 01:07:13;;;;;;;22.88;16.77;;;;;;;-145.83;100.00;58908.13;3479518;28;20136;-45
2021/07/20 01:08:55;;;;;;;27.33;17.38;;;;;;;-145.83;100.00;58908.13;3471001;28;20056;-44
2021/07/20 01:10:39;;;;;;;25.80;16.70;;;;;;;-145.83;100.00;58908.13;3472530;28;20494;-44
2021/07/20 01:12:22;;;;;;;30.45;17.50;;;;;;;-145.83;100.00;58908.13;3468884;28;20486;-44
2021/07/20 01:14:04;;;;;;;26.98;16.35;;;;;;;-145.83;100.00;58908.13;3472280;28;20065;-44
2021/07/20 01:15:47;;;;;;;25.45;15.95;;;;;;;-145.83;100.00;58908.13;3468945;28;20049;-45
2021/07/20 01:17:29;;;;;;;22.30;16.05;;;;;;;-145.83;100.00;58908.13;3471249;28;20080;-44
2021/07/20 01:19:14;;;;;;;25.95;16.02;;;;;;;-145.83;100.00;58908.13;3470452;28;20068;-44
2021/07/20 01:20:57;;;;;;;23.55;16.48;;;;;;;-145.83;100.00;58908.13;3481155;28;20446;-44
2021/07/20 01:22:44;;;;;;;25.92;16.10;;;;;;;-145.83;100.00;58908.13;3478146;28;20079;-44
2021/07/20 01:24:27;;;;;;;29.05;18.05;;;;;;;-145.83;100.00;58908.13;3468320;28;20073;-45
2021/07/20 01:26:08;;;;;;;29.00;17.30;;;;;;;-145.83;100.00;58908.13;3475459;28;20147;-45
2021/07/20 01:27:52;;;;;;;27.65;17.65;;;;;;;-145.83;100.00;58908.13;3481437;28;20057;-44
2021/07/20 01:29:34;;;;;;;28.98;17.58;;;;;;;-145.83;100.00;58908.13;3479522;28;20102;-44
2021/07/20 01:31:18;;;;;;;25.52;17.15;;;;;;;-145.83;100.00;58908.13;3479363;28;20135;-44
2021/07/20 01:33:02;;;;;;;25.63;16.77;;;;;;;-145.83;100.00;58908.13;3468729;28;20123;-45
2021/07/20 01:34:44;;;;;;;;;;;;;;;-145.83;100.00;58908.13;3474737;28;20076;-44
2021/07/20 01:36:27;;;;;;;28.83;16.55;;;;;;;-145.83;100.00;58908.13;3482409;28;20389;-44
2021/07/20 01:38:11;;;;;;;25.00;17.13;;;;;;;-145.83;100.00;58908.13;3478058;28;20079;-44
2021/07/20 01:39:55;;;;;;;26.70;15.98;;;;;;;-145.83;100.00;58908.13;3480555;28;20072;-45
2021/07/20 01:41:37;;;;;;;28.98;16.58;;;;;;;-145.83;100.00;58908.13;3482129;28;20057;-45
2021/07/20 01:43:22;;;;;;;27.95;17.48;;;;;;;-145.83;100.00;58908.13;3478678;28;20144;-44
2021/07/20 01:45:04;;;;;;;25.10;16.95;;;;;;;-145.83;100.00;58908.13;3468653;28;20531;-44
2021/07/20 01:46:47;;;;;;;33.15;17.27;;;;;;;-145.83;100.00;58908.13;3472348;28;20045;-44
2021/07/20 01:48:33;;;;;;;29.58;17.52;;;;;;;-145.83;100.00;58908.13;3469587;28;20061;-45
2021/07/20 01:50:16;;;;;;;25.77;16.63;;;;;;;-145.83;100.00;58908.13;3471248;28;20100;-44
2021/07/20 01:51:59;;;;;;;21.90;16.30;;;;;;;-145.83;100.00;58908.13;3471609;28;20077;-44
2021/07/20 01:53:41;;;;;;;24.30;16.90;;;;;;;-145.83;100.00;58908.13;3475850;28;20122;-45
2021/07/20 01:55:26;;;;;;;27.70;16.45;;;;;;;-145.83;100.00;58908.13;3477888;28;20195;-45
2021/07/20 01:57:07;;;;;;;24.17;15.75;;;;;;;-145.83;100.00;58908.13;3482224;28;20087;-45
2021/07/20 01:58:49;;;;;;;23.42;14.70;;;;;;;-145.83;100.00;58908.13;3471971;28;20057;-44
2021/07/20 02:00:31;;;;;;;25.65;15.77;;;;;;;-145.83;100.00;58908.13;3479382;28;20076;-45
2021/07/20 02:02:26;;;;;;;25.63;16.08;;;;;;;-145.83;100.00;58908.13;3479474;28;20521;-44
2021/07/20 02:04:22;;;;;;;25.38;16.08;;;;;;;-145.83;100.00;58908.13;3477055;28;20056;-44
2021/07/20 02:10:08;;;;;;;20.77;15.07;;;;;;;-145.83;100.00;58908.13;3472086;28;20041;-44
2021/07/20 02:11:52;;;;;;;22.50;15.70;;;;;;;-145.83;100.00;58908.13;3482230;28;20144;-45
2021/07/20 02:13:41;;;;;;;24.45;16.38;;;;;;;-145.83;100.00;58908.13;3472454;28;20514;-44
2021/07/20 02:15:24;;;;;;;25.42;15.80;;;;;;;-145.83;100.00;58908.13;3469074;28;20470;-44
2021/07/20 02:17:06;;;;;;;20.95;14.85;;;;;;;-145.83;100.00;58908.13;3479396;28;20415;-44
2021/07/20 02:18:52;;;;;;;23.52;15.73;;;;;;;-145.83;100.00;58908.13;3477898;28;20048;-45
2021/07/20 02:20:40;;;;;;;27.70;16.67;;;;;;;-145.83;100.00;58908.13;3482304;28;20045;-44
2021/07/20 02:22:24;;;;;;;24.58;16.88;;;;;;;-145.83;100.00;58908.13;3474292;28;20422;-44
2021/07/20 02:24:06;;;;;;;20.13;14.50;;;;;;;-145.83;100.00;58908.13;3468988;28;20077;-45
2021/07/20 02:25:55;;;;;;;23.20;16.38;;;;;;;-145.83;100.00;58908.13;3470969;28;20049;-45
2021/07/20 02:27:38;;;;;;;21.80;16.25;;;;;;;-145.83;100.00;58908.13;3470221;28;20498;-45
2021/07/20 02:29:21;;;;;;;25.00;16.17;;;;;;;-145.83;100.00;58908.13;3468346;28;20053;-44
2021/07/20 02:31:04;;;;;;;24.67;17.50;;;;;;;-145.83;100.00;58908.13;3472876;28;20453;-45
2021/07/20 02:32:47;;;;;;;25.92;17.40;;;;;;;-145.83;100.00;58908.13;3481940;28;20053;-44
2021/07/20 02:34:33;;;;;;;26.38;15.80;;;;;;;-145.83;100.00;58908.13;3477595;28;20084;-45
2021/07/20 02:36:15;;;;;;;28.85;17.23;;;;;;;-145.83;100.00;58908.13;3481275;28;20072;-45
2021/07/20 02:37:59;;;;;;;23.42;15.80;;;;;;;-145.83;100.00;58908.13;3471161;28;20084;-45
2021/07/20 02:39:44;;;;;;;22.83;14.98;;;;;;;-145.83;100.00;58908.13;3472929;28;20556;-45
2021/07/20 02:41:26;;;;;;;26.08;16.75;;;;;;;-145.83;100.00;58908.13;3470516;28;20092;-45
2021/07/20 02:43:09;;;;;;;26.27;16.52;;;;;;;-145.83;100.00;58908.13;3477141;28;20138;-44
2021/07/20 02:44:51;;;;;;;26.13;16.60;;;;;;;-145.83;100.00;58908.13;3483848;28;20135;-44
2021/07/20 02:46:36;;;;;;;31.20;21.13;;;;;;;-145.83;100.00;58908.13;3480513;28;20076;-45
2021/07/20 02:48:19;;;;;;;31.23;21.63;;;;;;;-145.83;100.00;58908.13;3480791;28;20045;-44
2021/07/20 02:50:02;;;;;;;36.35;21.95;;;;;;;-145.83;100.00;58908.13;3483483;28;20191;-44
2021/07/20 02:51:45;;;;;;;39.20;23.33;;;;;;;-145.83;100.00;58908.13;3477840;28;20107;-45
2021/07/20 02:53:28;;;;;;;35.42;23.77;;;;;;;-145.83;100.00;58908.13;3468845;28;20056;-44
2021/07/20 02:55:12;;;;;;;38.63;23.40;;;;;;;-145.83;100.00;58908.13;3473917;28;20115;-45
2021/07/20 02:56:54;;;;;;;;;;;;;;;-145.83;100.00;58908.13;3482464;28;20083;-44
2021/07/20 02:58:37;;;;;;;33.92;22.58;;;;;;;-145.83;100.00;58908.13;3480592;28;19970;-44
2021/07/20 03:00:21;;;;;;;34.25;23.52;;;;;;;-145.83;100.00;58908.13;3479742;28;20076;-45
2021/07/20 03:02:03;;;;;;;36.67;24.45;;;;;;;-145.83;100.00;58908.13;3483869;28;20083;-45
2021/07/20 03:03:46;;;;;;;35.97;23.55;;;;;;;-145.83;100.00;58908.13;3481697;28;20203;-45
2021/07/20 03:05:27;;;;;;;41.55;23.83;;;;;;;-145.83;100.00;58908.13;3484144;28;20564;-44
2021/07/20 03:07:13;;;;;;;36.60;24.55;;;;;;;-145.83;100.00;58908.13;3472773;28;20130;-44
2021/07/20 03:08:59;;;;;;;33.72;22.25;;;;;;;-145.83;100.00;58908.13;3472046;28;20137;-45
2021/07/20 03:10:42;;;;;;;34.30;23.30;;;;;;;-145.83;100.00;58908.13;3470934;28;20173;-45
2021/07/20 03:12:25;;;;;;;33.53;23.25;;;;;;;-145.83;100.00;58908.13;3472270;28;20050;-44
2021/07/20 03:14:12;;;;;;;30.73;21.50;;;;;;;-145.83;100.00;58908.13;3483829;28;20533;-44
2021/07/20 03:15:54;;;;;;;27.83;19.40;;;;;;;-145.83;100.00;58908.13;3479474;28;20045;-44
2021/07/20 03:17:36;;;;;;;28.50;19.40;;;;;;;-145.83;100.00;58908.13;3483021;28;20053;-45
2021/07/20 03:19:22;;;;;;;32.97;21.67;;;;;;;-145.83;100.00;58908.13;3471824;28;20084;-45
2021/07/20 03:21:05;;;;;;;31.95;21.20;;;;;;;-145.83;100.00;58908.13;3471957;28;20132;-44
2021/07/20 03:22:48;;;;;;;32.95;19.50;;;;;;;-145.83;100.00;58908.13;3483590;28;20540;-46
2021/07/20 03:24:32;;;;;;;33.85;22.30;;;;;;;-145.83;100.00;58908.13;3479321;28;20115;-45
2021/07/20 03:26:14;;;;;;;29.50;20.58;;;;;;;-145.83;100.00;58908.13;3483805;28;20518;-44
2021/07/20 03:27:57;;;;;;;25.23;19.27;;;;;;;-145.83;100.00;58908.13;3472692;28;20084;-44
2021/07/20 03:29:42;;;;;;;31.92;20.35;;;;;;;-145.83;100.00;58908.13;3471598;28;20139;-45
2021/07/20 03:31:24;;;;;;;31.70;21.10;;;;;;;-145.83;100.00;58908.13;3470691;28;20085;-45
2021/07/20 03:33:07;;;;;;;32.10;21.00;;;;;;;-145.83;100.00;58908.13;3472806;28;20045;-45
2021/07/20 03:34:50;;;;;;;33.28;21.17;;;;;;;-145.83;100.00;58908.13;3483980;28;20057;-44
2021/07/20 03:36:32;;;;;;;35.72;22.70;;;;;;;-145.83;100.00;58908.13;3476198;28;20080;-45
2021/07/20 03:38:14;;;;;;;32.55;22.38;;;;;;;-145.83;100.00;58908.13;3470150;28;20080;-44
2021/07/20 03:39:57;;;;;;;31.42;21.42;;;;;;;-145.83;100.00;58908.13;3479638;28;20144;-45
2021/07/20 03:41:40;;;;;;;31.63;23.03;;;;;;;-145.83;100.00;58908.13;3481797;28;20077;-46
2021/07/20 03:43:23;;;;;;;32.55;21.05;;;;;;;-145.83;100.00;58908.13;3469611;28;20140;-45
2021/07/20 03:45:07;;;;;;;33.67;21.67;;;;;;;-145.83;100.00;58908.13;3472823;28;20122;-44
2021/07/20 03:46:49;;;;;;;32.22;20.90;;;;;;;-145.83;100.00;58908.13;3469949;28;20084;-45
2021/07/20 03:48:32;;;;;;;32.03;21.13;;;;;;;-145.83;100.00;58908.13;3476867;28;20052;-45
2021/07/20 03:50:16;;;;;;;32.25;21.83;;;;;;;-145.83;100.00;58908.13;3482866;28;20080;-45
2021/07/20 03:51:58;;;;;;;33.05;20.60;;;;;;;-145.83;100.00;58908.13;3474552;28;20084;-45
2021/07/20 03:53:40;;;;;;;29.80;19.20;;;;;;;-145.83;100.00;58908.13;3478007;28;20149;-44
2021/07/20 03:55:23;;;;;;;26.73;19.30;;;;;;;-145.83;100.00;58908.13;3482312;28;20581;-45
2021/07/20 03:57:06;;;;;;;25.35;18.90;;;;;;;-145.83;100.00;58908.13;3477701;28;20104;-44
2021/07/20 03:58:50;;;;;;;;;;;;;;;-145.83;100.00;58908.13;3470224;28;20059;-45
2021/07/20 04:00:33;;;;;;;23.67;17.67;;;;;;;-145.83;100.00;58908.13;3473184;28;20480;-44
2021/07/20 04:02:18;;;;;;;27.35;17.38;;;;;;;-145.83;100.00;58908.13;3470711;28;20049;-44
2021/07/20 04:04:01;;;;;;;24.65;17.83;;;;;;;-145.83;100.00;58908.13;3470457;28;20054;-44
2021/07/20 04:05:45;;;;;;;27.08;17.80;;;;;;;-145.83;100.00;58908.13;3471991;28;20045;-44
2021/07/20 04:07:26;;;;;;;25.30;16.20;;;;;;;-145.83;100.00;58908.13;3469457;28;20144;-45
2021/07/20 04:09:10;;;;;;;23.55;15.20;;;;;;;-145.83;100.00;58908.13;3476033;28;20098;-44
2021/07/20 04:10:53;;;;;;;24.35;16.35;;;;;;;-145.83;100.00;58908.13;3483078;28;20143;-45
2021/07/20 04:12:35;;;;;;;17.85;14.68;;;;;;;-145.83;100.00;58908.13;3472252;28;20083;-45
2021/07/20 04:14:17;;;;;;;19.95;14.43;;;;;;;-145.83;100.00;58908.13;3471973;28;20088;-45
2021/07/20 04:16:02;;;;;;;23.08;16.05;;;;;;;-145.83;100.00;58908.13;3470509;28;20088;-45
2021/07/20 04:17:44;;;;;;;20.50;15.45;;;;;;;-145.83;100.00;58908.13;3473571;28;20052;-46
2021/07/20 04:19:26;;;;;;;22.92;16.45;;;;;;;-145.83;100.00;58908.13;3483318;28;20132;-44
2021/07/20 04:21:08;;;;;;;25.60;17.50;;;;;;;-145.83;100.00;58908.13;3473790;28;20188;-45
2021/07/20 04:22:50;;;;;;;25.40;15.32;;;;;;;-145.83;100.00;58908.13;3470180;28;20088;-45
2021/07/20 04:24:32;;;;;;;23.38;16.52;;;;;;;-145.83;100.00;58908.13;3472190;28;20081;-45
2021/07/20 04:26:14;;;;;;;22.90;17.30;;;;;;;-145.83;100.00;58908.13;3472251;28;20490;-44
2021/07/20 04:27:56;;;;;;;26.40;17.60;;;;;;;-145.83;100.00;58908.13;3469505;28;20091;-45
2021/07/20 04:29:37;;;;;;;29.75;19.23;;;;;;;-145.83;100.00;58908.13;3473677;28;20083;-44
2021/07/20 04:31:23;;;;;;;27.60;17.67;;;;;;;-145.83;100.00;58908.13;3483151;28;20049;-45
2021/07/20 04:33:05;;;;;;;26.90;19.25;;;;;;;-145.83;100.00;58908.13;3474075;28;20053;-46
2021/07/20 04:34:48;;;;;;;22.92;17.23;;;;;;;-145.83;100.00;58908.13;3470260;28;20057;-46
2021/07/20 04:36:30;;;;;;;25.77;18.08;;;;;;;-145.83;100.00;58908.13;3479343;28;20091;-45
2021/07/20 04:38:12;;;;;;;27.40;18.25;;;;;;;-145.83;100.00;58908.13;3478727;28;20079;-48
2021/07/20 04:39:54;;;;;;;27.55;18.63;;;;;;;-145.83;100.00;58908.13;3482985;28;20080;-45
2021/07/20 04:41:36;;;;;;;24.95;18.42;;;;;;;-145.83;100.00;58908.13;3478506;28;20532;-46
2021/07/20 04:43:18;;;;;;;22.90;17.92;;;;;;;-145.83;100.00;58908.13;3482862;28;20064;-46
2021/07/20 04:44:59;;;;;;;25.88;18.63;;;;;;;-145.83;100.00;58908.13;3473626;28;20080;-45
2021/07/20 04:46:46;;;;;;;25.52;17.95;;;;;;;-145.83;100.00;58908.13;3470043;28;20049;-45
2021/07/20 04:48:27;;;;;;;22.60;16.63;;;;;;;-145.83;100.00;58908.13;3480192;28;20088;-44
2021/07/20 04:50:11;;;;;;;23.02;16.83;;;;;;;-145.83;100.00;58908.13;3478432;28;20136;-46
2021/07/20 04:51:52;;;;;;;;;;;;;;;-145.83;100.00;58908.13;3483325;28;20087;-44
2021/07/20 04:53:36;;;;;;;23.90;16.23;;;;;;;-145.83;100.00;58908.13;3475612;28;20444;-44
2021/07/20 04:55:18;;;;;;;24.13;17.35;;;;;;;-145.83;100.00;58908.13;3482391;28;20049;-44
2021/07/20 04:56:59;;;;;;;24.80;16.50;;;;;;;-145.83;100.00;58908.13;3471519;28;20050;-46
2021/07/20 04:58:41;;;;;;;25.45;15.80;;;;;;;-145.83;100.00;58908.13;3470672;28;20464;-45
2021/07/20 05:00:22;;;;;;;20.63;17.23;;;;;;;-145.83;100.00;58908.13;3469750;28;20574;-44
2021/07/20 05:02:06;;;;;;;28.38;16.73;;;;;;;-145.83;100.00;58908.13;3472445;28;20076;-44
2021/07/20 05:03:49;;;;;;;22.23;16.40;;;;;;;-145.83;100.00;58908.13;3469111;28;20046;-44
2021/07/20 05:05:38;;;;;;;22.48;17.48;;;;;;;-145.83;100.00;58908.13;3472714;28;20132;-44
2021/07/20 05:07:21;;;;;;;20.42;16.02;;;;;;;-145.83;100.00;58908.13;3469749;28;20084;-44
2021/07/20 05:09:04;;;;;;;28.90;17.23;;;;;;;-145.83;100.00;58908.13;3471791;28;20057;-45
2021/07/20 05:10:48;;;;;;;23.35;16.67;;;;;;;-145.83;100.00;58908.13;3471178;28;20099;-46
2021/07/20 05:12:31;;;;;;;23.08;15.23;;;;;;;-145.83;100.00;58908.13;3468738;28;20187;-44
2021/07/20 05:14:13;;;;;;;20.10;15.43;;;;;;;-145.83;100.00;58908.13;3472778;28;20088;-45
2021/07/20 05:15:58;;;;;;;20.98;16.70;;;;;;;-145.83;100.00;58908.13;3482838;28;20045;-44
2021/07/20 05:17:40;;;;;;;26.55;16.00;;;;;;;-145.83;100.00;58908.13;3478294;28;20053;-45
2021/07/20 05:19:23;;;;;;;19.10;14.90;;;;;;;-145.83;100.00;58908.13;3480807;28;20080;-44
2021/07/20 05:21:05;;;;;;;24.00;16.95;;;;;;;-145.83;100.00;58908.13;3470843;28;20092;-45
2021/07/20 05:22:47;;;;;;;22.00;15.32;;;;;;;-145.83;100.00;58908.13;3471175;28;20132;-45
2021/07/20 05:24:30;;;;;;;19.83;15.23;;;;;;;-145.83;100.00;58908.13;3482361;28;20060;-44
2021/07/20 05:26:13;;;;;;;20.17;15.38;;;;;;;-145.83;100.00;58908.13;3478249;28;20072;-45
2021/07/20 05:27:57;;;;;;;19.73;15.73;;;;;;;-145.83;100.00;58908.13;3482399;28;20056;-44
2021/07/20 05:29:40;;;;;;;22.35;15.93;;;;;;;-145.83;100.00;58908.13;3478641;28;20087;-45
2021/07/20 05:31:24;;;;;;;20.27;15.68;;;;;;;-145.83;100.00;58908.13;3480301;28;20049;-45
2021/07/20 05:33:09;;;;;;;23.50;16.02;;;;;;;-145.83;100.00;58908.13;3469490;28;20049;-45
2021/07/20 05:34:51;;;;;;;21.67;15.73;;;;;;;-145.83;100.00;58908.13;3472326;28;20048;-44
2021/07/20 05:36:32;;;;;;;20.77;14.70;;;;;;;-145.83;100.00;58908.13;3468833;28;20287;-44
2021/07/20 05:38:14;;;;;;;23.48;16.40;;;;;;;-145.83;100.00;58908.13;3472512;28;20088;-45
2021/07/20 05:39:55;;;;;;;21.20;15.52;;;;;;;-145.83;100.00;58908.13;3469363;28;20071;-48
2021/07/20 05:41:37;;;;;;;22.27;15.00;;;;;;;-145.83;100.00;58908.13;3470346;28;20085;-46
2021/07/20 05:43:19;;;;;;;21.48;15.57;;;;;;;-145.83;100.00;58908.13;3470062;28;20084;-46
2021/07/20 05:45:01;;;;;;;22.27;13.88;;;;;;;-145.83;100.00;58908.13;3481310;28;20080;-47
2021/07/20 05:46:44;;;;;;;19.90;14.02;;;;;;;-145.83;100.00;58908.13;3477470;28;20102;-45
2021/07/20 05:48:27;;;;;;;20.92;14.93;;;;;;;-145.83;100.00;58908.13;3468453;28;20053;-47
2021/07/20 05:50:10;;;;;;;19.58;14.45;;;;;;;-145.83;100.00;58908.13;3471106;28;20073;-46
2021/07/20 05:51:52;;;;;;;19.70;14.18;;;;;;;-145.83;100.00;58908.13;3469580;28;20085;-48
2021/07/20 05:53:37;;;;;;;19.40;14.63;;;;;;;-145.83;100.00;58908.13;3468144;28;20077;-45
2021/07/20 05:55:20;;;;;;;18.08;14.73;;;;;;;-145.83;100.00;58908.13;3470117;28;20069;-46
2021/07/20 05:57:02;;;;;;;18.70;13.47;;;;;;;-145.83;100.00;58908.13;3481322;28;20514;-48
2021/07/20 05:58:45;;;;;;;16.02;12.68;;;;;;;-145.83;100.00;58908.13;3474960;28;20053;-50
2021/07/20 06:00:28;;;;;;;17.83;12.73;;;;;;;-145.83;100.00;58908.13;3468407;28;20077;-46
2021/07/20 06:02:12;;;;;;;19.20;13.77;;;;;;;-145.83;100.00;58908.13;3470907;28;20115;-46
2021/07/20 06:03:55;;;;;;;18.63;13.35;;;;;;;-145.83;100.00;58908.13;3469704;28;20477;-46
2021/07/20 06:05:37;;;;;;;20.17;13.82;;;;;;;-145.83;100.00;58908.13;3479819;28;20077;-46
2021/07/20 06:07:18;;;;;;;17.42;13.63;;;;;;;-145.83;100.00;58908.13;3478777;28;20084;-46
2021/07/20 06:09:02;;;;;;;18.77;13.02;;;;;;;-145.83;100.00;58908.13;3468364;28;20512;-49
2021/07/20 06:10:46;;;;;;;20.02;13.25;;;;;;;-145.83;100.00;58908.13;3471311;28;20080;-46
2021/07/20 06:12:29;;;;;;;16.40;12.93;;;;;;;-145.83;100.00;58908.13;3471000;28;20144;-46
2021/07/20 06:14:10;;;;;;;18.17;13.38;;;;;;;-145.83;100.00;58908.13;3481452;28;20083;-47
2021/07/20 06:15:54;;;;;;;17.92;12.43;;;;;;;-145.83;100.00;58908.13;3480881;28;20064;-47
2021/07/20 06:17:35;;;;;;;;;;;;;;;-145.83;100.00;58908.13;3472012;28;20481;-46
2021/07/20 06:19:17;;;;;;;15.00;12.30;;;;;;;-145.83;100.00;58908.13;3474206;28;19932;-46
2021/07/20 06:21:02;;;;;;;15.15;12.25;;;;;;;-145.83;100.00;58908.13;3484668;28;20088;-46
2021/07/20 06:22:48;;;;;;;14.88;12.93;;;;;;;-145.83;100.00;58908.13;3475143;28;20440;-46
2021/07/20 06:24:33;;;;;;;18.65;12.40;;;;;;;-145.83;100.00;58908.13;3471627;28;20138;-46
2021/07/20 06:26:16;;;;;;;19.25;13.65;;;;;;;-145.83;100.00;58908.13;3481420;28;20139;-46
2021/07/20 06:27:59;;;;;;;;;;;;;;;-145.83;100.00;58908.13;3480698;28;20052;-46
2021/07/20 06:29:42;;;;;;;17.52;11.43;;;;;;;-145.83;100.00;58908.13;3484297;28;20466;-46
2021/07/20 06:31:25;;;;;;;16.45;12.60;;;;;;;-145.83;100.00;58908.13;3479686;28;20087;-46
2021/07/20 06:33:08;;;;;;;15.95;11.50;;;;;;;-145.83;100.00;58908.13;3484203;28;20056;-45
2021/07/20 06:34:50;;;;;;;16.97;12.17;;;;;;;-145.83;100.00;58908.13;3479840;28;20084;-48
2021/07/20 06:36:34;;;;;;;15.25;11.15;;;;;;;-145.83;100.00;58908.13;3481193;28;20530;-46
2021/07/20 06:38:17;;;;;;;13.98;10.82;;;;;;;-145.83;100.00;58908.13;3482943;28;20056;-46
2021/07/20 06:39:58;;;;;;;;;;;;;;;-145.83;100.00;58908.13;3480413;28;20095;-46
2021/07/20 06:41:40;;;;;;;19.00;11.63;;;;;;;-145.83;100.00;58908.13;3484327;28;19972;-45
2021/07/20 06:43:23;;;;;;;18.95;12.05;;;;;;;-145.83;100.00;58908.13;3479880;28;20498;-48
2021/07/20 06:45:05;;;;;;;16.13;11.20;;;;;;;-145.83;100.00;58908.13;3483811;28;20576;-47
2021/07/20 06:46:46;;;;;;;14.02;11.73;;;;;;;-145.83;100.00;58908.13;3480319;28;20148;-47
2021/07/20 06:48:29;;;;;;;16.98;12.02;;;;;;;-145.83;100.00;58908.13;3482155;28;20514;-46
2021/07/20 06:50:15;;;;;;;16.83;11.43;;;;;;;-145.83;100.00;58908.13;3471866;28;20077;-45
2021/07/20 06:51:57;;;;;;;16.38;11.68;;;;;;;-145.83;100.00;58908.13;3473822;28;20509;-46
2021/07/20 06:53:39;;;;;;;21.40;13.32;;;;;;;-145.83;100.00;58908.13;3470575;28;20085;-46
2021/07/20 06:55:22;;;;;;;19.88;13.57;;;;;;;-145.83;100.00;58908.13;3474092;28;20136;-46
2021/07/20 06:57:05;;;;;;;16.48;13.35;;;;;;;-145.83;100.00;58908.13;3471135;28;20092;-44
2021/07/20 06:58:47;;;;;;;20.13;12.50;;;;;;;-145.83;100.00;58908.13;3480479;28;20072;-45
2021/07/20 07:00:29;;;;;;;16.15;11.52;;;;;;;-145.83;100.00;58908.13;3480852;28;20080;-45
2021/07/20 07:02:18;;;;;;;17.73;12.40;;;;;;;-145.83;100.00;58908.13;3483190;28;20053;-46
2021/07/20 07:04:08;;;;;;;15.82;11.40;;;;;;;-145.83;100.00;58908.13;3478198;28;20417;-45
2021/07/20 07:05:52;;;;;;;17.80;11.68;;;;;;;-145.83;100.00;58908.13;3470041;28;20054;-46
2021/07/20 07:07:34;;;;;;;17.52;12.15;;;;;;;-145.83;100.00;58908.13;3479869;28;20048;-45
2021/07/20 07:09:16;;;;;;;14.55;11.70;;;;;;;-145.83;100.00;58908.13;3482018;28;20079;-45
2021/07/20 07:11:01;;;;;;;15.88;12.07;;;;;;;-145.83;100.00;58908.13;3470984;28;20572;-46
2021/07/20 07:12:45;;;;;;;16.05;10.90;;;;;;;-145.83;100.00;58908.13;3473443;28;20541;-45
2021/07/20 07:14:30;;;;;;;18.00;11.20;;;;;;;-145.83;100.00;58908.13;3483892;28;20057;-46
2021/07/20 07:16:12;;;;;;;13.05;10.30;;;;;;;-145.83;100.00;58908.13;3475247;28;20076;-46
2021/07/20 07:17:54;;;;;;;18.38;11.77;;;;;;;-145.83;100.00;58908.13;3471077;28;20077;-46
2021/07/20 07:19:36;;;;;;;16.92;10.82;;;;;;;-145.83;100.00;58908.13;3471894;28;20049;-46
2021/07/20 07:21:19;;;;;;;14.05;10.68;;;;;;;-145.83;100.00;58908.13;3471606;28;20789;-46
2021/07/20 07:23:02;;;;;;;;;;;;;;;-145.83;100.00;58908.13;3483104;28;20068;-46
2021/07/20 07:24:44;;;;;;;15.63;9.52;;;;;;;-145.83;100.00;58908.13;3479369;28;20382;-45
2021/07/20 07:26:26;;;;;;;12.65;10.57;;;;;;;-145.83;100.00;58908.13;3483982;28;20087;-45
2021/07/20 07:28:09;;;;;;;14.20;11.07;;;;;;;-145.83;100.00;58908.13;3479284;28;20505;-46
2021/07/20 07:29:51;;;;;;;23.48;12.75;;;;;;;-145.83;100.00;58908.13;3482404;28;20187;-45
2021/07/20 07:31:33;;;;;;;18.00;12.05;;;;;;;-145.83;100.00;58908.13;3470800;28;20080;-45
2021/07/20 07:33:15;;;;;;;14.75;10.95;;;;;;;-145.83;100.00;58908.13;3471705;28;20107;-46
2021/07/20 07:34:56;;;;;;;15.43;10.75;;;;;;;-145.83;100.00;58908.13;3483458;28;20469;-45
2021/07/20 07:36:39;;;;;;;12.90;10.80;;;;;;;-145.83;100.00;58908.13;3477880;28;20475;-46
2021/07/20 07:38:22;;;;;;;15.82;10.93;;;;;;;-145.83;100.00;58908.13;3472706;28;20049;-44
2021/07/20 07:40:07;;;;;;;16.48;10.38;;;;;;;-145.83;100.00;58908.13;3479244;28;20497;-45
2021/07/20 07:41:49;;;;;;;17.00;10.93;;;;;;;-145.83;100.00;58908.13;3481823;28;20076;-45
2021/07/20 07:43:34;;;;;;;16.58;10.93;;;;;;;-145.83;100.00;58908.13;3480880;28;20053;-45